CW9533 Torre Faro Messina IT current weather conditions

sailwx.info

Wind from 025 at 6 knots gusting 15

Air temperature 16.1° C
Dewpoint 5.1° C

Last reported at 2014-Oct-23 05:43 UTC.
Time now 2014-Oct-23 06:49 UTC

Location: N 38°16' E 015°39'.
View on Google Maps.

See reports from other nearby stations

  
Tides and Currents Weather Stations Pressure Air Temp Water Temp Dewpoint Dewpoint Depression Visibility Wind Speed Wind Dir Waves Ship Positions
date/time (UTC)wind fromknots sea level pressurealtimeterstation pressurevisibilityair tempwater tempwave heightnotes
2014-Oct-23 05:43 025 6 gusting 15 16.1
2014-Oct-23 05:28 355 11 gusting 20 16.1
2014-Oct-23 05:13 005 11 gusting 22 16.1
2014-Oct-23 04:58 017 12 gusting 19 16.1
2014-Oct-23 04:43 360 9 gusting 19 16.1
2014-Oct-23 04:28 355 6 gusting 16 15.0
2014-Oct-23 04:13 335 5 gusting 7 14.4
2014-Oct-23 03:58 319 6 gusting 13 13.9
2014-Oct-23 03:43 316 8 gusting 15 13.3
2014-Oct-23 03:28 333 6 gusting 12 12.8
2014-Oct-23 03:13 318 6 gusting 20 12.8
2014-Oct-23 02:58 009 17 gusting 32 13.9
2014-Oct-23 02:43 029 11 gusting 21 13.9
2014-Oct-23 02:28 011 13 gusting 23 15.0
2014-Oct-23 02:13 009 6 gusting 25 15.0
2014-Oct-23 01:58 348 4 gusting 8 16.1
2014-Oct-23 01:43 346 6 gusting 12 15.0
2014-Oct-23 01:28 015 5 gusting 12 14.4
2014-Oct-23 01:13 005 8 gusting 18 14.4
2014-Oct-23 00:58 335 13 gusting 31 14.4
2014-Oct-23 00:43 297 6 gusting 16 17.8
2014-Oct-23 00:28 339 8 gusting 19 17.8
2014-Oct-23 00:13 355 6 gusting 11 17.2
2014-Oct-22 23:58 337 5 gusting 19 16.7
2014-Oct-22 23:43 005 14 gusting 26 17.2
2014-Oct-22 23:28 344 9 gusting 23 18.3
2014-Oct-22 23:13 025 13 gusting 22 18.3
2014-Oct-22 22:57 005 12 gusting 30 19.4
2014-Oct-22 22:42 332 9 gusting 17 20.0
2014-Oct-22 22:27 049 5 gusting 16 20.0
2014-Oct-22 22:12 032 3 gusting 14 20.6
2014-Oct-22 21:57 342 4 gusting 19 20.6
2014-Oct-22 21:42 346 10 gusting 18 20.6
2014-Oct-22 21:27 042 10 gusting 19 20.0
2014-Oct-22 21:12 009 10 gusting 20 20.6
2014-Oct-22 20:57 336 10 gusting 20 21.1
2014-Oct-22 20:42 005 6 gusting 17 21.1
2014-Oct-22 20:27 005 5 gusting 12 21.1
2014-Oct-22 20:12 023 2 gusting 9 21.1
2014-Oct-22 19:57 042 6 gusting 16 21.1
2014-Oct-22 19:42 311 6 gusting 12 21.1
2014-Oct-22 19:27 011 21.1
2014-Oct-22 19:12 013 4 gusting 11 21.1
2014-Oct-22 18:57 355 5 gusting 10 21.1
2014-Oct-22 18:42 360 6 gusting 15 20.6
2014-Oct-22 18:27 331 4 gusting 13 20.6
2014-Oct-22 18:12 009 6 gusting 13 20.6
2014-Oct-22 17:57 296 20.6
2014-Oct-22 17:42 295 0 gusting 14 20.6
2014-Oct-22 17:27 341 5 gusting 10 19.4
2014-Oct-22 17:12 307 5 gusting 10 18.9
2014-Oct-22 16:57 315 5 gusting 23 18.9
2014-Oct-22 16:42 299 9 gusting 15 20.0
2014-Oct-22 16:27 333 8 gusting 21 21.1
2014-Oct-22 16:12 296 11 gusting 19 21.1
2014-Oct-22 15:57 295 6 gusting 15 21.1
2014-Oct-22 15:42 309 1 gusting 10 21.1
2014-Oct-22 15:27 336 6 gusting 11 20.6
2014-Oct-22 15:12 294 2 gusting 7 20.0
2014-Oct-22 14:57 295 8 gusting 17 20.6
2014-Oct-22 14:42 296 5 gusting 13 20.6
2014-Oct-22 14:27 302 8 gusting 13 20.6
2014-Oct-22 14:12 324 4 gusting 7 21.1
2014-Oct-22 13:57 355 6 gusting 13 21.1
2014-Oct-22 13:42 332 8 gusting 18 23.3
2014-Oct-22 13:27 336 4 gusting 15 24.4
2014-Oct-22 13:12 306 11 gusting 20 24.4
2014-Oct-22 12:57 298 6 gusting 14 24.4
2014-Oct-22 12:42 304 13 gusting 23 24.4
2014-Oct-22 12:27 322 6 gusting 16 24.4
2014-Oct-22 12:12 299 12 gusting 20 24.4
2014-Oct-22 11:57 296 6 gusting 21 25.0
2014-Oct-22 11:42 355 9 gusting 21 25.0
2014-Oct-22 11:27 297 3 gusting 17 24.4
2014-Oct-22 11:12 333 7 gusting 16 24.4
2014-Oct-22 10:57 360 9 gusting 17 25.0
2014-Oct-22 10:42 342 6 gusting 18 25.0
2014-Oct-22 10:27 313 5 gusting 13 25.0
2014-Oct-22 10:12 319 1 gusting 7 24.4
2014-Oct-22 09:57 005 6 gusting 10 25.0
2014-Oct-22 09:42 296 25.0
2014-Oct-22 09:27 301 7 gusting 13 25.0
2014-Oct-22 09:12 298 3 gusting 13 25.0
2014-Oct-22 08:57 027 2 gusting 7 25.0
2014-Oct-22 08:41 037 24.4
2014-Oct-22 08:26 037 0 gusting 5 23.9
2014-Oct-22 08:11 033 2 gusting 6 23.9
2014-Oct-22 07:56 033 3 gusting 6 23.3
2014-Oct-22 07:41 033 22.8
2014-Oct-22 07:26 033 22.2
2014-Oct-22 07:11 033 21.7
2014-Oct-22 06:56 033 21.1
2014-Oct-22 06:41 033 20.6
2014-Oct-22 06:26 033 0 gusting 2 20.0
2014-Oct-22 06:11 033 19.4
2014-Oct-22 05:56 033 2 gusting 5 19.4
2014-Oct-22 05:41 033 18.9
2014-Oct-22 05:26 033 0 gusting 2 18.9
2014-Oct-22 05:11 033 18.9
2014-Oct-22 04:56 033 1 gusting 5 18.9
2014-Oct-22 04:41 033 0 gusting 5 18.9
2014-Oct-22 04:26 033 2 gusting 6 18.9
2014-Oct-22 04:11 033 2 gusting 5 18.9
2014-Oct-22 03:56 033 1 gusting 6 18.9
2014-Oct-22 03:41 033 0 gusting 3 18.9
2014-Oct-22 03:26 033 2 gusting 5 18.9
2014-Oct-22 03:11 033 0 gusting 4 18.9
2014-Oct-22 02:56 033 1 gusting 3 18.9
2014-Oct-22 02:41 033 2 gusting 5 18.9
2014-Oct-22 02:26 033 1 gusting 5 18.9
2014-Oct-22 02:11 033 1 gusting 4 18.9
2014-Oct-22 01:56 033 3 gusting 6 18.9
2014-Oct-22 01:41 033 3 gusting 5 18.9
2014-Oct-22 01:26 033 2 gusting 5 18.9
2014-Oct-22 01:11 033 1 gusting 6 19.4
2014-Oct-22 00:55 033 0 gusting 3 19.4
2014-Oct-22 00:40 033 1 gusting 5 19.4
2014-Oct-22 00:25 033 19.4
2014-Oct-22 00:10 033 0 gusting 4 19.4
2014-Oct-21 23:55 033 0 gusting 2 19.4
2014-Oct-21 23:40 033 20.0
2014-Oct-21 23:25 033 20.0
2014-Oct-21 23:10 033 20.0
2014-Oct-21 22:55 033 20.6
2014-Oct-21 22:40 033 20.6
2014-Oct-21 22:25 033 20.6
2014-Oct-21 22:10 033 0 gusting 2 20.6
2014-Oct-21 21:55 033 20.6
2014-Oct-21 21:40 033 0 gusting 3 21.1
2014-Oct-21 21:25 033 21.1
2014-Oct-21 21:10 033 21.1
2014-Oct-21 20:55 033 21.1
2014-Oct-21 20:40 033 1 gusting 4 21.1
2014-Oct-21 20:25 033 0 gusting 3 21.7
2014-Oct-21 20:10 033 0 gusting 2 21.7
2014-Oct-21 19:55 033 21.7
2014-Oct-21 19:40 033 0 gusting 3 21.7
2014-Oct-21 19:25 033 1 gusting 5 21.7
2014-Oct-21 19:10 033 21.7
2014-Oct-21 18:55 033 21.7
2014-Oct-21 18:40 033 22.2
2014-Oct-21 18:25 033 1 gusting 5 22.2
2014-Oct-21 18:10 033 1 gusting 4 22.2
2014-Oct-21 17:55 033 1 gusting 5 22.2
2014-Oct-21 17:40 033 1 gusting 5 22.2
2014-Oct-21 17:25 033 2 gusting 5 22.2
2014-Oct-21 17:10 033 2 gusting 6 22.2
2014-Oct-21 16:55 032 3 gusting 6 22.2
2014-Oct-21 16:40 028 2 gusting 7 22.2
2014-Oct-21 16:25 028 2 gusting 7 22.2
2014-Oct-21 16:10 026 3 gusting 10 22.8
2014-Oct-21 15:55 025 4 gusting 7 22.8
2014-Oct-21 15:40 028 4 gusting 9 22.8
2014-Oct-21 15:25 025 4 gusting 8 22.8
2014-Oct-21 15:10 020 6 gusting 12 22.8
2014-Oct-21 14:55 015 3 gusting 11 22.8
2014-Oct-21 14:39 027 6 gusting 10 23.3
2014-Oct-21 14:24 018 6 gusting 13 23.3
2014-Oct-21 14:09 011 6 gusting 13 23.3
2014-Oct-21 13:54 005 9 gusting 14 23.3
2014-Oct-21 13:39 033 6 gusting 13 23.9
2014-Oct-21 13:24 025 8 gusting 13 23.9
2014-Oct-21 13:09 026 7 gusting 11 24.4
2014-Oct-21 12:54 026 5 gusting 12 23.9
2014-Oct-21 12:39 005 6 gusting 13 24.4
2014-Oct-21 12:24 005 6 gusting 13 23.9
2014-Oct-21 12:09 345 7 gusting 13 23.9
2014-Oct-21 11:54 355 7 gusting 13 23.9
2014-Oct-21 11:39 355 5 gusting 12 23.9
2014-Oct-21 11:24 005 5 gusting 12 23.9
2014-Oct-21 11:09 005 6 gusting 12 23.9
2014-Oct-21 10:54 349 8 gusting 14 23.9
2014-Oct-21 10:39 355 6 gusting 14 23.9
2014-Oct-21 10:24 005 6 gusting 12 23.9
2014-Oct-21 10:09 005 6 gusting 11 23.3
2014-Oct-21 09:54 013 6 gusting 11 23.3
2014-Oct-21 09:39 021 5 gusting 11 23.9
2014-Oct-21 09:24 034 2 gusting 7 23.9
2014-Oct-21 09:09 034 4 gusting 8 23.9
2014-Oct-21 08:54 032 4 gusting 9 23.3
2014-Oct-21 08:39 031 3 gusting 7 23.3
2014-Oct-21 08:24 028 5 gusting 8 22.8
2014-Oct-21 08:09 026 6 gusting 10 22.8
2014-Oct-21 07:54 039 5 gusting 9 22.8
2014-Oct-21 07:39 019 3 gusting 10 22.8
2014-Oct-21 07:24 011 2 gusting 7 22.2
2014-Oct-21 07:09 005 2 gusting 6 22.2
2014-Oct-21 06:54 351 3 gusting 8 22.2
2014-Oct-21 06:39 350 5 gusting 9 22.2
2014-Oct-21 06:24 355 3 gusting 8 21.7
2014-Oct-21 06:09 355 5 gusting 10 21.7